sensor_id;sensor_type;location;lat;lon;timestamp;pressure;altitude;pressure_sealevel;temperature;humidity
22930;BME280;11630;42.660;23.292;2023-04-27T00:01:53;68491.30;;;8.72;72.79
22930;BME280;11630;42.660;23.292;2023-04-27T00:04:24;68481.52;;;8.63;73.36
22930;BME280;11630;42.660;23.292;2023-04-27T00:06:55;68480.14;;;8.56;72.92
22930;BME280;11630;42.660;23.292;2023-04-27T00:09:26;68481.20;;;8.52;73.56
22930;BME280;11630;42.660;23.292;2023-04-27T00:11:56;68473.91;;;8.56;73.18
22930;BME280;11630;42.660;23.292;2023-04-27T00:14:28;68464.42;;;8.46;72.77
22930;BME280;11630;42.660;23.292;2023-04-27T00:17:00;68471.19;;;8.49;73.27
22930;BME280;11630;42.660;23.292;2023-04-27T00:19:31;68485.30;;;8.62;72.67
22930;BME280;11630;42.660;23.292;2023-04-27T00:22:02;68480.97;;;8.58;73.26
22930;BME280;11630;42.660;23.292;2023-04-27T00:24:33;68477.70;;;8.55;73.10
22930;BME280;11630;42.660;23.292;2023-04-27T00:27:04;68462.50;;;8.41;72.77
22930;BME280;11630;42.660;23.292;2023-04-27T00:29:34;68455.44;;;8.37;74.05
22930;BME280;11630;42.660;23.292;2023-04-27T00:32:05;68460.05;;;8.35;73.90
22930;BME280;11630;42.660;23.292;2023-04-27T00:34:37;68450.84;;;8.34;74.14
22930;BME280;11630;42.660;23.292;2023-04-27T00:37:08;68455.98;;;8.33;74.28
22930;BME280;11630;42.660;23.292;2023-04-27T00:39:38;68456.52;;;8.33;74.00
22930;BME280;11630;42.660;23.292;2023-04-27T00:42:09;68438.62;;;8.19;74.51
22930;BME280;11630;42.660;23.292;2023-04-27T00:44:40;68443.50;;;8.21;74.32
22930;BME280;11630;42.660;23.292;2023-04-27T00:47:11;68439.70;;;8.20;74.54
22930;BME280;11630;42.660;23.292;2023-04-27T00:49:42;68420.69;;;8.03;74.69
22930;BME280;11630;42.660;23.292;2023-04-27T00:52:14;68415.25;;;7.98;75.26
22930;BME280;11630;42.660;23.292;2023-04-27T00:54:45;68421.50;;;8.05;75.20
22930;BME280;11630;42.660;23.292;2023-04-27T00:57:17;68416.86;;;7.94;75.67
22930;BME280;11630;42.660;23.292;2023-04-27T00:59:48;68405.77;;;7.90;76.95
22930;BME280;11630;42.660;23.292;2023-04-27T01:02:18;68403.59;;;7.88;76.40
22930;BME280;11630;42.660;23.292;2023-04-27T01:04:50;68396.78;;;7.78;77.06
22930;BME280;11630;42.660;23.292;2023-04-27T01:07:25;68398.42;;;7.77;77.69
22930;BME280;11630;42.660;23.292;2023-04-27T01:09:55;68392.47;;;7.77;77.63
22930;BME280;11630;42.660;23.292;2023-04-27T01:12:26;68390.31;;;7.77;77.84
22930;BME280;11630;42.660;23.292;2023-04-27T01:14:56;68394.64;;;7.79;77.86
22930;BME280;11630;42.660;23.292;2023-04-27T01:17:27;68388.41;;;7.74;78.32
22930;BME280;11630;42.660;23.292;2023-04-27T01:19:57;68389.22;;;7.74;78.10
22930;BME280;11630;42.660;23.292;2023-04-27T01:22:29;68382.16;;;7.67;78.53
22930;BME280;11630;42.660;23.292;2023-04-27T01:24:59;68377.81;;;7.63;78.75
22930;BME280;11630;42.660;23.292;2023-04-27T01:27:30;68377.28;;;7.65;78.72
22930;BME280;11630;42.660;23.292;2023-04-27T01:30:01;68386.75;;;7.68;77.90
22930;BME280;11630;42.660;23.292;2023-04-27T01:32:35;68380.25;;;7.64;78.24
22930;BME280;11630;42.660;23.292;2023-04-27T01:35:07;68372.95;;;7.62;77.53
22930;BME280;11630;42.660;23.292;2023-04-27T01:37:38;68370.22;;;7.57;78.71
22930;BME280;11630;42.660;23.292;2023-04-27T01:40:10;68369.95;;;7.58;77.86
22930;BME280;11630;42.660;23.292;2023-04-27T01:42:43;68372.41;;;7.63;77.65
22930;BME280;11630;42.660;23.292;2023-04-27T01:45:16;68368.03;;;7.52;78.06
22930;BME280;11630;42.660;23.292;2023-04-27T01:47:49;68372.95;;;7.62;76.48
22930;BME280;11630;42.660;23.292;2023-04-27T01:50:18;68369.41;;;7.55;77.33
22930;BME280;11630;42.660;23.292;2023-04-27T01:52:50;68371.86;;;7.61;77.30
22930;BME280;11630;42.660;23.292;2023-04-27T01:55:21;68378.89;;;7.62;76.94
22930;BME280;11630;42.660;23.292;2023-04-27T01:57:52;68372.95;;;7.59;76.28
22930;BME280;11630;42.660;23.292;2023-04-27T02:00:23;68376.71;;;7.60;76.22
22930;BME280;11630;42.660;23.292;2023-04-27T02:02:53;68382.94;;;7.62;76.18
22930;BME280;11630;42.660;23.292;2023-04-27T02:05:24;68379.16;;;7.63;75.96
22930;BME280;11630;42.660;23.292;2023-04-27T02:07:55;68378.89;;;7.62;75.29
22930;BME280;11630;42.660;23.292;2023-04-27T02:10:26;68384.86;;;7.67;75.94
22930;BME280;11630;42.660;23.292;2023-04-27T02:12:56;68368.60;;;7.58;75.50
22930;BME280;11630;42.660;23.292;2023-04-27T02:15:30;68371.84;;;7.56;75.47
22930;BME280;11630;42.660;23.292;2023-04-27T02:18:01;68371.03;;;7.54;75.26
22930;BME280;11630;42.660;23.292;2023-04-27T02:20:32;68368.03;;;7.52;75.52
22930;BME280;11630;42.660;23.292;2023-04-27T02:23:03;68372.66;;;7.58;75.32
22930;BME280;11630;42.660;23.292;2023-04-27T02:25:35;68369.15;;;7.56;76.14
22930;BME280;11630;42.660;23.292;2023-04-27T02:28:06;68363.18;;;7.50;74.95
22930;BME280;11630;42.660;23.292;2023-04-27T02:30:36;68368.59;;;7.55;75.07
22930;BME280;11630;42.660;23.292;2023-04-27T02:33:07;68370.77;;;7.57;74.99
22930;BME280;11630;42.660;23.292;2023-04-27T02:35:38;68363.45;;;7.52;75.22
22930;BME280;11630;42.660;23.292;2023-04-27T02:38:08;68372.95;;;7.62;73.94
22930;BME280;11630;42.660;23.292;2023-04-27T02:40:39;68364.53;;;7.53;74.07
22930;BME280;11630;42.660;23.292;2023-04-27T02:43:10;68359.92;;;7.50;74.96
22930;BME280;11630;42.660;23.292;2023-04-27T02:45:40;68372.66;;;7.60;74.59
22930;BME280;11630;42.660;23.292;2023-04-27T02:48:11;68368.33;;;7.54;74.18
22930;BME280;11630;42.660;23.292;2023-04-27T02:50:43;68368.59;;;7.53;74.61
22930;BME280;11630;42.660;23.292;2023-04-27T02:53:15;68367.23;;;7.53;73.71
22930;BME280;11630;42.660;23.292;2023-04-27T02:55:47;68366.69;;;7.52;73.29
22930;BME280;11630;42.660;23.292;2023-04-27T02:58:18;68362.91;;;7.51;73.96
22930;BME280;11630;42.660;23.292;2023-04-27T03:00:57;68361.83;;;7.50;73.72
22930;BME280;11630;42.660;23.292;2023-04-27T03:03:24;68365.06;;;7.51;73.94
22930;BME280;11630;42.660;23.292;2023-04-27T03:05:54;68363.19;;;7.53;73.10
22930;BME280;11630;42.660;23.292;2023-04-27T03:08:25;68358.56;;;7.45;74.02
22930;BME280;11630;42.660;23.292;2023-04-27T03:10:56;68370.47;;;7.53;73.60
22930;BME280;11630;42.660;23.292;2023-04-27T03:13:27;68362.09;;;7.52;72.48
22930;BME280;11630;42.660;23.292;2023-04-27T03:15:58;68369.67;;;7.54;73.00
22930;BME280;11630;42.660;23.292;2023-04-27T03:18:29;68372.66;;;7.58;73.56
22930;BME280;11630;42.660;23.292;2023-04-27T03:21:10;68363.97;;;7.47;72.20
22930;BME280;11630;42.660;23.292;2023-04-27T03:23:40;68364.53;;;7.53;72.16
22930;BME280;11630;42.660;23.292;2023-04-27T03:26:12;68368.59;;;7.53;72.15
22930;BME280;11630;42.660;23.292;2023-04-27T03:28:43;68361.00;;;7.48;72.41
22930;BME280;11630;42.660;23.292;2023-04-27T03:31:14;68344.73;;;7.36;73.06
22930;BME280;11630;42.660;23.292;2023-04-27T03:33:45;68361.53;;;7.49;72.99
22930;BME280;11630;42.660;23.292;2023-04-27T03:36:16;68344.20;;;7.33;72.42
22930;BME280;11630;42.660;23.292;2023-04-27T03:38:47;68342.56;;;7.34;72.77
22930;BME280;11630;42.660;23.292;2023-04-27T03:41:18;68338.50;;;7.29;72.12
22930;BME280;11630;42.660;23.292;2023-04-27T03:43:49;68344.47;;;7.34;72.54
22930;BME280;11630;42.660;23.292;2023-04-27T03:46:19;68357.19;;;7.40;71.83
22930;BME280;11630;42.660;23.292;2023-04-27T03:48:52;68342.30;;;7.32;72.85
22930;BME280;11630;42.660;23.292;2023-04-27T03:51:22;68347.99;;;7.36;73.12
22930;BME280;11630;42.660;23.292;2023-04-27T03:53:53;68357.77;;;7.48;72.26
22930;BME280;11630;42.660;23.292;2023-04-27T03:56:24;68362.35;;;7.48;71.98
22930;BME280;11630;42.660;23.292;2023-04-27T03:58:55;68348.01;;;7.41;71.63
22930;BME280;11630;42.660;23.292;2023-04-27T04:01:26;68342.00;;;7.26;71.09
22930;BME280;11630;42.660;23.292;2023-04-27T04:03:56;68338.80;;;7.33;71.49
22930;BME280;11630;42.660;23.292;2023-04-27T04:06:27;68344.20;;;7.35;70.60
22930;BME280;11630;42.660;23.292;2023-04-27T04:08:58;68353.14;;;7.40;70.30
22930;BME280;11630;42.660;23.292;2023-04-27T04:11:29;68364.52;;;7.48;69.98
22930;BME280;11630;42.660;23.292;2023-04-27T04:14:00;68339.06;;;7.32;68.98
22930;BME280;11630;42.660;23.292;2023-04-27T04:16:32;68342.02;;;7.31;69.81
22930;BME280;11630;42.660;23.292;2023-04-27T04:19:03;68349.09;;;7.40;69.22
22930;BME280;11630;42.660;23.292;2023-04-27T04:21:34;68355.30;;;7.42;69.51
22930;BME280;11630;42.660;23.292;2023-04-27T04:24:06;68344.47;;;7.34;70.89
22930;BME280;11630;42.660;23.292;2023-04-27T04:26:36;68350.70;;;7.39;70.21
22930;BME280;11630;42.660;23.292;2023-04-27T04:29:07;68358.56;;;7.45;68.95
22930;BME280;11630;42.660;23.292;2023-04-27T04:31:38;68368.33;;;7.54;70.51
22930;BME280;11630;42.660;23.292;2023-04-27T04:34:10;68380.55;;;7.68;68.25
22930;BME280;11630;42.660;23.292;2023-04-27T04:36:41;68373.22;;;7.61;68.92
22930;BME280;11630;42.660;23.292;2023-04-27T04:39:11;68375.11;;;7.63;67.74
22930;BME280;11630;42.660;23.292;2023-04-27T04:41:42;68376.18;;;7.60;67.20
22930;BME280;11630;42.660;23.292;2023-04-27T04:44:12;68377.27;;;7.61;67.33
22930;BME280;11630;42.660;23.292;2023-04-27T04:46:42;68383.77;;;7.66;67.55
22930;BME280;11630;42.660;23.292;2023-04-27T04:49:13;68398.17;;;7.83;66.97
22930;BME280;11630;42.660;23.292;2023-04-27T04:51:44;68401.97;;;7.87;65.89
22930;BME280;11630;42.660;23.292;2023-04-27T04:54:15;68404.95;;;7.91;66.41
22930;BME280;11630;42.660;23.292;2023-04-27T04:56:45;68385.95;;;7.71;66.23
22930;BME280;11630;42.660;23.292;2023-04-27T04:59:16;68390.29;;;7.75;66.12
22930;BME280;11630;42.660;23.292;2023-04-27T05:01:47;68407.95;;;7.92;66.57
22930;BME280;11630;42.660;23.292;2023-04-27T05:04:18;68422.33;;;8.09;65.53
22930;BME280;11630;42.660;23.292;2023-04-27T05:06:49;68432.61;;;8.11;64.81
22930;BME280;11630;42.660;23.292;2023-04-27T05:09:20;68431.30;;;8.16;64.62
22930;BME280;11630;42.660;23.292;2023-04-27T05:11:51;68422.58;;;8.03;64.47
22930;BME280;11630;42.660;23.292;2023-04-27T05:14:22;68439.45;;;8.21;65.08
22930;BME280;11630;42.660;23.292;2023-04-27T05:16:53;68457.61;;;8.34;64.78
22930;BME280;11630;42.660;23.292;2023-04-27T05:19:24;68456.27;;;8.39;64.42
22930;BME280;11630;42.660;23.292;2023-04-27T05:21:54;68457.05;;;8.34;63.86
22930;BME280;11630;42.660;23.292;2023-04-27T05:24:27;68459.80;;;8.41;64.99
22930;BME280;11630;42.660;23.292;2023-04-27T05:27:04;68454.08;;;8.32;64.39
22930;BME280;11630;42.660;23.292;2023-04-27T05:29:33;68455.17;;;8.33;63.99
22930;BME280;11630;42.660;23.292;2023-04-27T05:32:05;68444.56;;;8.22;64.58
22930;BME280;11630;42.660;23.292;2023-04-27T05:34:35;68470.63;;;8.46;65.50
22930;BME280;11630;42.660;23.292;2023-04-27T05:37:06;68446.48;;;8.28;64.93
22930;BME280;11630;42.660;23.292;2023-04-27T05:39:37;68425.28;;;8.06;65.33
22930;BME280;11630;42.660;23.292;2023-04-27T05:42:08;68425.02;;;8.04;66.19
22930;BME280;11630;42.660;23.292;2023-04-27T05:44:39;68419.61;;;8.04;66.32
22930;BME280;11630;42.660;23.292;2023-04-27T05:47:10;68439.70;;;8.20;66.55
22930;BME280;11630;42.660;23.292;2023-04-27T05:49:40;68444.88;;;8.31;72.49
22930;BME280;11630;42.660;23.292;2023-04-27T05:52:11;68497.27;;;8.78;88.96
22930;BME280;11630;42.660;23.292;2023-04-27T05:54:49;68463.06;;;8.44;73.01
22930;BME280;11630;42.660;23.292;2023-04-27T05:57:19;68453.28;;;8.33;75.41
22930;BME280;11630;42.660;23.292;2023-04-27T05:59:51;68448.13;;;8.29;75.03
22930;BME280;11630;42.660;23.292;2023-04-27T06:02:22;68456.53;;;8.38;74.69
22930;BME280;11630;42.660;23.292;2023-04-27T06:04:52;68451.64;;;8.34;74.89
22930;BME280;11630;42.660;23.292;2023-04-27T06:07:22;68448.66;;;8.30;74.73
22930;BME280;11630;42.660;23.292;2023-04-27T06:09:53;68445.39;;;8.24;72.40
22930;BME280;11630;42.660;23.292;2023-04-27T06:12:24;68447.56;;;8.26;71.03
22930;BME280;11630;42.660;23.292;2023-04-27T06:14:55;68437.53;;;8.18;71.30
22930;BME280;11630;42.660;23.292;2023-04-27T06:17:26;68447.58;;;8.31;71.40
22930;BME280;11630;42.660;23.292;2023-04-27T06:19:56;68460.33;;;8.41;70.33
22930;BME280;11630;42.660;23.292;2023-04-27T06:22:27;68463.06;;;8.44;69.00
22930;BME280;11630;42.660;23.292;2023-04-27T06:24:58;68452.98;;;8.31;68.93
22930;BME280;11630;42.660;23.292;2023-04-27T06:27:29;68461.69;;;8.41;67.99
22930;BME280;11630;42.660;23.292;2023-04-27T06:29:59;68473.64;;;8.52;68.93
22930;BME280;11630;42.660;23.292;2023-04-27T06:32:30;68493.17;;;8.68;66.63
22930;BME280;11630;42.660;23.292;2023-04-27T06:35:00;68480.98;;;8.63;67.14
22930;BME280;11630;42.660;23.292;2023-04-27T06:37:31;68509.49;;;8.88;66.00
22930;BME280;11630;42.660;23.292;2023-04-27T06:40:02;68513.52;;;8.85;66.87
22930;BME280;11630;42.660;23.292;2023-04-27T06:42:33;68517.63;;;8.95;66.05
22930;BME280;11630;42.660;23.292;2023-04-27T06:45:02;68545.31;;;9.16;66.63
22930;BME280;11630;42.660;23.292;2023-04-27T06:47:34;68541.80;;;9.18;65.49
22930;BME280;11630;42.660;23.292;2023-04-27T06:50:04;68548.03;;;9.20;64.02
22930;BME280;11630;42.660;23.292;2023-04-27T06:52:35;68583.88;;;9.48;65.74
22930;BME280;11630;42.660;23.292;2023-04-27T06:55:09;68598.59;;;9.69;62.77
22930;BME280;11630;42.660;23.292;2023-04-27T06:57:39;68578.98;;;9.44;60.61
22930;BME280;11630;42.660;23.292;2023-04-27T07:00:11;68593.41;;;9.63;59.80
22930;BME280;11630;42.660;23.292;2023-04-27T07:02:43;68606.16;;;9.69;60.31
22930;BME280;11630;42.660;23.292;2023-04-27T07:05:13;68571.67;;;9.38;60.41
22930;BME280;11630;42.660;23.292;2023-04-27T07:07:44;68570.85;;;9.41;59.99
22930;BME280;11630;42.660;23.292;2023-04-27T07:10:15;68565.42;;;9.36;59.66
22930;BME280;11630;42.660;23.292;2023-04-27T07:12:46;68569.76;;;9.38;59.61
22930;BME280;11630;42.660;23.292;2023-04-27T07:15:18;68580.09;;;9.47;60.65
22930;BME280;11630;42.660;23.292;2023-04-27T07:17:49;68582.55;;;9.53;59.01
22930;BME280;11630;42.660;23.292;2023-04-27T07:20:21;68587.70;;;9.54;58.92
22930;BME280;11630;42.660;23.292;2023-04-27T07:22:51;68630.09;;;9.93;57.95
22930;BME280;11630;42.660;23.292;2023-04-27T07:25:21;68632.56;;;9.99;56.84
22930;BME280;11630;42.660;23.292;2023-04-27T07:27:52;68644.53;;;10.07;56.28
22930;BME280;11630;42.660;23.292;2023-04-27T07:30:23;68714.13;;;10.71;54.86
22930;BME280;11630;42.660;23.292;2023-04-27T07:32:54;68694.01;;;10.53;54.30
22930;BME280;11630;42.660;23.292;2023-04-27T07:35:31;68677.16;;;10.35;55.63
22930;BME280;11630;42.660;23.292;2023-04-27T07:38:02;68677.69;;;10.38;55.66
22930;BME280;11630;42.660;23.292;2023-04-27T07:40:34;68673.62;;;10.38;55.15
22930;BME280;11630;42.660;23.292;2023-04-27T07:43:04;68716.84;;;10.69;54.82
22930;BME280;11630;42.660;23.292;2023-04-27T07:45:35;68729.66;;;10.86;52.58
22930;BME280;11630;42.660;23.292;2023-04-27T07:48:07;68763.38;;;11.17;51.98
22930;BME280;11630;42.660;23.292;2023-04-27T07:50:39;68691.02;;;10.49;53.70
22930;BME280;11630;42.660;23.292;2023-04-27T07:53:10;68701.62;;;10.55;53.53
22930;BME280;11630;42.660;23.292;2023-04-27T07:55:41;68734.80;;;10.82;53.28
22930;BME280;11630;42.660;23.292;2023-04-27T07:58:11;68720.92;;;10.73;53.30
22930;BME280;11630;42.660;23.292;2023-04-27T08:00:43;68739.42;;;10.90;52.01
22930;BME280;11630;42.660;23.292;2023-04-27T08:03:13;68756.84;;;11.09;51.57
22930;BME280;11630;42.660;23.292;2023-04-27T08:05:44;68777.25;;;11.29;50.96
22930;BME280;11630;42.660;23.292;2023-04-27T08:08:14;68808.31;;;11.54;49.96
22930;BME280;11630;42.660;23.292;2023-04-27T08:10:48;68882.91;;;12.23;49.04
22930;BME280;11630;42.660;23.292;2023-04-27T08:13:19;68896.00;;;12.37;48.01
22930;BME280;11630;42.660;23.292;2023-04-27T08:15:50;68887.02;;;12.30;47.73
22930;BME280;11630;42.660;23.292;2023-04-27T08:18:21;68865.50;;;12.12;48.23
22930;BME280;11630;42.660;23.292;2023-04-27T08:20:51;68855.69;;;11.98;48.28
22930;BME280;11630;42.660;23.292;2023-04-27T08:23:25;68780.26;;;11.30;49.46
22930;BME280;11630;42.660;23.292;2023-04-27T08:25:53;68757.67;;;11.13;50.15
22930;BME280;11630;42.660;23.292;2023-04-27T08:28:26;68795.77;;;11.38;49.82
22930;BME280;11630;42.660;23.292;2023-04-27T08:30:58;68857.59;;;11.96;48.45
22930;BME280;11630;42.660;23.292;2023-04-27T08:33:28;68828.45;;;11.68;49.29
22930;BME280;11630;42.660;23.292;2023-04-27T08:35:59;68827.36;;;11.72;49.18
22930;BME280;11630;42.660;23.292;2023-04-27T08:38:30;68842.61;;;11.83;48.81
22930;BME280;11630;42.660;23.292;2023-04-27T08:41:00;68912.06;;;12.48;48.34
22930;BME280;11630;42.660;23.292;2023-04-27T08:43:34;68954.31;;;12.95;47.14
22930;BME280;11630;42.660;23.292;2023-04-27T08:46:04;68927.05;;;12.63;46.74
22930;BME280;11630;42.660;23.292;2023-04-27T08:48:35;68903.63;;;12.41;46.16
22930;BME280;11630;42.660;23.292;2023-04-27T08:51:06;68957.58;;;12.91;46.00
22930;BME280;11630;42.660;23.292;2023-04-27T08:53:38;68922.16;;;12.63;45.88
22930;BME280;11630;42.660;23.292;2023-04-27T08:56:08;69020.56;;;13.44;45.43
22930;BME280;11630;42.660;23.292;2023-04-27T08:58:39;69033.10;;;13.58;44.38
22930;BME280;11630;42.660;23.292;2023-04-27T09:01:12;68983.22;;;13.14;44.15
22930;BME280;11630;42.660;23.292;2023-04-27T09:03:44;68969.59;;;13.02;44.68
22930;BME280;11630;42.660;23.292;2023-04-27T09:06:15;68955.94;;;12.87;44.82
22930;BME280;11630;42.660;23.292;2023-04-27T09:08:47;69035.27;;;13.68;44.04
22930;BME280;11630;42.660;23.292;2023-04-27T09:11:30;69095.59;;;14.21;42.68
22930;BME280;11630;42.660;23.292;2023-04-27T09:14:00;69013.75;;;13.42;43.41
22930;BME280;11630;42.660;23.292;2023-04-27T09:16:31;68984.02;;;13.13;44.19
22930;BME280;11630;42.660;23.292;2023-04-27T09:19:02;68913.42;;;12.50;43.97
22930;BME280;11630;42.660;23.292;2023-04-27T09:21:33;68979.66;;;13.14;43.64
22930;BME280;11630;42.660;23.292;2023-04-27T09:24:12;68999.57;;;13.31;42.71
22930;BME280;11630;42.660;23.292;2023-04-27T09:26:48;69054.94;;;13.81;42.04
22930;BME280;11630;42.660;23.292;2023-04-27T09:29:17;69145.25;;;14.64;41.04
22930;BME280;11630;42.660;23.292;2023-04-27T09:31:48;69111.13;;;14.34;40.71
22930;BME280;11630;42.660;23.292;2023-04-27T09:34:19;69132.16;;;14.50;39.54
22930;BME280;11630;42.660;23.292;2023-04-27T09:36:50;69041.30;;;13.66;40.36
22930;BME280;11630;42.660;23.292;2023-04-27T09:39:22;69050.28;;;13.78;41.58
22930;BME280;11630;42.660;23.292;2023-04-27T09:41:53;69104.05;;;14.28;39.95
22930;BME280;11630;42.660;23.292;2023-04-27T09:44:25;69084.94;;;14.08;41.26
22930;BME280;11630;42.660;23.292;2023-04-27T09:46:58;69031.75;;;13.56;42.50
22930;BME280;11630;42.660;23.292;2023-04-27T09:49:28;69115.50;;;14.41;40.15
22930;BME280;11630;42.660;23.292;2023-04-27T09:51:59;69148.81;;;14.63;40.70
22930;BME280;11630;42.660;23.292;2023-04-27T09:54:31;69178.28;;;14.90;39.75
22930;BME280;11630;42.660;23.292;2023-04-27T10:02:19;69274.45;;;15.75;35.73
22930;BME280;11630;42.660;23.292;2023-04-27T10:05:08;69102.14;;;14.22;39.19
22930;BME280;11630;42.660;23.292;2023-04-27T10:07:37;69135.43;;;14.50;37.32
22930;BME280;11630;42.660;23.292;2023-04-27T10:10:15;69126.98;;;14.46;37.88
22930;BME280;11630;42.660;23.292;2023-04-27T10:12:41;69135.43;;;14.50;37.88
22930;BME280;11630;42.660;23.292;2023-04-27T10:15:15;69150.99;;;14.68;38.94
22930;BME280;11630;42.660;23.292;2023-04-27T10:17:50;69187.58;;;14.99;37.86
22930;BME280;11630;42.660;23.292;2023-04-27T10:20:31;69198.77;;;15.08;37.14
22930;BME280;11630;42.660;23.292;2023-04-27T10:23:01;69128.34;;;14.46;37.25
22930;BME280;11630;42.660;23.292;2023-04-27T10:25:40;69115.51;;;14.31;37.84
22930;BME280;11630;42.660;23.292;2023-04-27T10:28:17;69200.41;;;15.12;37.34
22930;BME280;11630;42.660;23.292;2023-04-27T10:30:47;69305.58;;;16.11;37.22
22930;BME280;11630;42.660;23.292;2023-04-27T10:33:21;69383.52;;;16.81;35.89
22930;BME280;11630;42.660;23.292;2023-04-27T10:35:57;69369.59;;;16.64;34.68
22930;BME280;11630;42.660;23.292;2023-04-27T10:38:29;69357.84;;;16.47;35.65
22930;BME280;11630;42.660;23.292;2023-04-27T10:41:02;69492.97;;;17.80;33.96
22930;BME280;11630;42.660;23.292;2023-04-27T10:43:35;69432.50;;;17.16;34.60
22930;BME280;11630;42.660;23.292;2023-04-27T10:46:13;69354.27;;;16.53;33.93
22930;BME280;11630;42.660;23.292;2023-04-27T10:48:44;69331.30;;;16.27;34.58
22930;BME280;11630;42.660;23.292;2023-04-27T10:51:17;69297.66;;;16.05;35.13
22930;BME280;11630;42.660;23.292;2023-04-27T10:53:51;69287.85;;;15.86;34.67
22930;BME280;11630;42.660;23.292;2023-04-27T10:56:20;69404.31;;;16.94;34.08
22930;BME280;11630;42.660;23.292;2023-04-27T10:58:51;69412.25;;;17.05;34.16
22930;BME280;11630;42.660;23.292;2023-04-27T11:01:25;69522.55;;;18.02;32.23
22930;BME280;11630;42.660;23.292;2023-04-27T11:03:57;69375.31;;;16.71;34.09
22930;BME280;11630;42.660;23.292;2023-04-27T11:06:29;69241.95;;;15.49;34.25
22930;BME280;11630;42.660;23.292;2023-04-27T11:09:01;69237.56;;;15.45;35.02
22930;BME280;11630;42.660;23.292;2023-04-27T11:11:33;69322.81;;;16.25;34.90
22930;BME280;11630;42.660;23.292;2023-04-27T11:14:04;69248.77;;;15.54;35.25
22930;BME280;11630;42.660;23.292;2023-04-27T11:16:44;69192.48;;;15.08;35.48
22930;BME280;11630;42.660;23.292;2023-04-27T11:19:10;69100.50;;;14.23;36.91
22930;BME280;11630;42.660;23.292;2023-04-27T11:21:40;69101.05;;;14.19;37.22
22930;BME280;11630;42.660;23.292;2023-04-27T11:24:10;69185.65;;;15.01;37.19
22930;BME280;11630;42.660;23.292;2023-04-27T11:26:41;69265.14;;;15.74;35.69
22930;BME280;11630;42.660;23.292;2023-04-27T11:29:12;69267.06;;;15.77;35.32
22930;BME280;11630;42.660;23.292;2023-04-27T11:31:51;69376.97;;;16.67;34.84
22930;BME280;11630;42.660;23.292;2023-04-27T11:34:23;69398.30;;;16.92;34.46
22930;BME280;11630;42.660;23.292;2023-04-27T11:37:06;69358.36;;;16.58;34.90
22930;BME280;11630;42.660;23.292;2023-04-27T11:39:36;69335.95;;;16.35;35.10
22930;BME280;11630;42.660;23.292;2023-04-27T11:42:22;69242.23;;;15.43;36.22
22930;BME280;11630;42.660;23.292;2023-04-27T11:47:30;69178.00;;;14.94;36.42
22930;BME280;11630;42.660;23.292;2023-04-27T11:50:04;69249.84;;;15.60;35.40
22930;BME280;11630;42.660;23.292;2023-04-27T11:52:35;69329.11;;;16.32;36.39
22930;BME280;11630;42.660;23.292;2023-04-27T11:55:08;69266.53;;;15.69;37.13
22930;BME280;11630;42.660;23.292;2023-04-27T11:57:42;69319.28;;;16.16;35.83
22930;BME280;11630;42.660;23.292;2023-04-27T12:00:11;69316.27;;;16.17;35.25
22930;BME280;11630;42.660;23.292;2023-04-27T12:02:43;69242.48;;;15.50;35.92
22930;BME280;11630;42.660;23.292;2023-04-27T12:05:13;69284.29;;;15.84;35.63
22930;BME280;11630;42.660;23.292;2023-04-27T12:07:44;69194.39;;;15.06;36.22
22930;BME280;11630;42.660;23.292;2023-04-27T12:10:15;69146.34;;;14.65;36.78
22930;BME280;11630;42.660;23.292;2023-04-27T12:12:46;69153.16;;;14.77;36.51
22930;BME280;11630;42.660;23.292;2023-04-27T12:15:16;69176.91;;;14.98;36.98
22930;BME280;11630;42.660;23.292;2023-04-27T12:17:47;69215.17;;;15.28;36.36
22930;BME280;11630;42.660;23.292;2023-04-27T12:20:17;69125.59;;;14.51;37.12
22930;BME280;11630;42.660;23.292;2023-04-27T12:22:48;69177.20;;;14.92;36.50
22930;BME280;11630;42.660;23.292;2023-04-27T12:25:19;69144.16;;;14.60;37.33
22930;BME280;11630;42.660;23.292;2023-04-27T12:27:50;69179.12;;;14.90;37.31
22930;BME280;11630;42.660;23.292;2023-04-27T12:30:21;69191.12;;;15.01;37.20
22930;BME280;11630;42.660;23.292;2023-04-27T12:32:51;69169.02;;;14.82;36.67
22930;BME280;11630;42.660;23.292;2023-04-27T12:35:23;69177.20;;;14.92;37.19
22930;BME280;11630;42.660;23.292;2023-04-27T12:37:54;69212.16;;;15.29;36.96
22930;BME280;11630;42.660;23.292;2023-04-27T12:40:25;69175.02;;;14.90;38.05
22930;BME280;11630;42.660;23.292;2023-04-27T12:42:55;69224.17;;;15.39;36.93
22930;BME280;11630;42.660;23.292;2023-04-27T12:45:26;69161.91;;;14.73;37.57
22930;BME280;11630;42.660;23.292;2023-04-27T12:47:57;69196.03;;;15.08;37.55
22930;BME280;11630;42.660;23.292;2023-04-27T12:50:29;69161.09;;;14.76;37.35
22930;BME280;11630;42.660;23.292;2023-04-27T12:52:59;69102.68;;;14.30;37.84
22930;BME280;11630;42.660;23.292;2023-04-27T12:55:30;69117.13;;;14.42;37.83
22930;BME280;11630;42.660;23.292;2023-04-27T12:58:01;69100.77;;;14.27;37.80
22930;BME280;11630;42.660;23.292;2023-04-27T13:00:32;69096.67;;;14.22;37.83
22930;BME280;11630;42.660;23.292;2023-04-27T13:03:04;69138.17;;;14.55;38.06
22930;BME280;11630;42.660;23.292;2023-04-27T13:05:36;69152.91;;;14.66;37.70
22930;BME280;11630;42.660;23.292;2023-04-27T13:08:07;69146.07;;;14.66;37.56
22930;BME280;11630;42.660;23.292;2023-04-27T13:10:39;69140.34;;;14.57;37.96
22930;BME280;11630;42.660;23.292;2023-04-27T13:13:13;69144.44;;;14.57;38.58
22930;BME280;11630;42.660;23.292;2023-04-27T13:15:43;69122.05;;;14.44;37.54
22930;BME280;11630;42.660;23.292;2023-04-27T13:18:14;69165.18;;;14.81;37.76
22930;BME280;11630;42.660;23.292;2023-04-27T13:20:47;69214.07;;;15.29;36.94
22930;BME280;11630;42.660;23.292;2023-04-27T13:23:20;69192.22;;;15.07;36.90
22930;BME280;11630;42.660;23.292;2023-04-27T13:25:51;69173.36;;;14.96;36.95